NCAR-RAP Real-Time Weather Data

Output produced by METARs form (16 October 2021  03:46 UTC)
found at http://weather.rap.ucar.edu/surface/
 
KVPZ 160256Z AUTO 31007G16KT 10SM -RA SCT038 BKN075 OVC090 12/09 A2991 RMK AO2 SLP128 P0003 60005 T01220089 50010 $
KVPZ 160156Z AUTO 27005KT 10SM -RA FEW029 BKN038 OVC075 13/11 A2991 RMK AO2 SLP129 P0002 T01280111
KVPZ 160056Z AUTO 00000KT 10SM -RA OVC085 14/11 A2990 RMK AO2 RAB25 SLP125 P0000 T01390111
KVPZ 152356Z AUTO 32005KT 10SM SCT070 BKN080 OVC100 14/12 A2988 RMK AO2 SLP117 60017 T01440117 10167 20139 51005